Time;durP1;ratioP1;P1;durP2;ratioP2;P2;SDS_P1;SDS_P2;PMS_P1;PMS_P2;Temp;Humidity;BMP_temperature;BMP_pressure;BME280_temperature;BME280_humidity;BME280_pressure;Samples;Min_cycle;Max_cycle;Signal;HPM_P1;HPM_P2
2023/12/18 00:00:05;;;;;;;10.15;5.63;;;;;;;;;;699473;28;1238;-72
2023/12/18 00:00:25;;;;;;;10.88;5.53;;;;;;;;;;698941;28;1799;-71
2023/12/18 00:00:48;;;;;;;8.90;5.40;;;;;;;;;;702827;27;896;-74
2023/12/18 00:01:08;;;;;;;9.68;5.45;;;;;;;;;;705283;27;4469;-72
2023/12/18 00:01:29;;;;;;;10.02;5.60;;;;;;;;;;704284;27;1801;-74
2023/12/18 00:01:49;;;;;;;10.10;5.43;;;;;;;;;;705792;27;1301;-74
2023/12/18 00:02:09;;;;;;;9.82;5.43;;;;;;;;;;705978;27;1045;-72
2023/12/18 00:02:30;;;;;;;8.43;5.40;;;;;;;;;;704855;27;2318;-74
2023/12/18 00:02:50;;;;;;;8.35;5.10;;;;;;;;;;705900;27;923;-73
2023/12/18 00:03:10;;;;;;;8.60;5.13;;;;;;;;;;706515;27;1006;-73
2023/12/18 00:03:30;;;;;;;8.83;5.47;;;;;;;;;;700728;28;1974;-72
2023/12/18 00:03:51;;;;;;;8.40;5.45;;;;;;;;;;702625;28;4297;-74
2023/12/18 00:04:11;;;;;;;7.77;5.50;;;;;;;;;;703218;28;923;-74
2023/12/18 00:04:32;;;;;;;10.20;5.67;;;;;;;;;;702442;28;1868;-74
2023/12/18 00:04:54;;;;;;;8.30;5.30;;;;;;;;;;699626;28;1408;-74
2023/12/18 00:05:14;;;;;;;9.52;5.63;;;;;;;;;;700644;28;859;-74
2023/12/18 00:05:36;;;;;;;9.68;5.80;;;;;;;;;;700593;28;1437;-73
2023/12/18 00:05:56;;;;;;;9.68;5.50;;;;;;;;;;703758;28;887;-74
2023/12/18 00:06:17;;;;;;;9.30;5.40;;;;;;;;;;703582;28;871;-73
2023/12/18 00:06:38;;;;;;;8.60;5.20;;;;;;;;;;701991;28;1070;-74
2023/12/18 00:06:59;;;;;;;8.38;5.25;;;;;;;;;;702740;28;4217;-74
2023/12/18 00:07:20;;;;;;;8.75;5.20;;;;;;;;;;700025;28;1265;-72
2023/12/18 00:07:42;;;;;;;7.90;4.97;;;;;;;;;;699667;28;1109;-73
2023/12/18 00:08:03;;;;;;;7.68;5.03;;;;;;;;;;700042;28;1238;-71
2023/12/18 00:08:24;;;;;;;9.15;5.43;;;;;;;;;;700518;28;886;-73
2023/12/18 00:08:45;;;;;;;8.02;5.13;;;;;;;;;;699362;28;1822;-74
2023/12/18 00:09:06;;;;;;;8.07;5.00;;;;;;;;;;701742;28;1397;-73
2023/12/18 00:09:27;;;;;;;7.75;5.20;;;;;;;;;;699136;28;2302;-74
2023/12/18 00:09:48;;;;;;;6.83;5.00;;;;;;;;;;699962;28;4223;-73
2023/12/18 00:10:08;;;;;;;7.10;5.00;;;;;;;;;;699587;28;913;-74
2023/12/18 00:10:28;;;;;;;8.15;5.43;;;;;;;;;;698401;28;2604;-73
2023/12/18 00:10:49;;;;;;;8.63;5.07;;;;;;;;;;697716;28;1420;-74
2023/12/18 00:11:09;;;;;;;9.13;5.27;;;;;;;;;;698279;28;955;-71
2023/12/18 00:11:29;;;;;;;7.93;5.27;;;;;;;;;;698918;28;1483;-71
2023/12/18 00:11:49;;;;;;;8.38;5.32;;;;;;;;;;700900;28;974;-72
2023/12/18 00:12:10;;;;;;;7.80;5.00;;;;;;;;;;700420;28;1910;-73
2023/12/18 00:12:30;;;;;;;8.15;5.43;;;;;;;;;;698712;28;1990;-74
2023/12/18 00:12:51;;;;;;;8.90;5.60;;;;;;;;;;699931;28;4370;-73
2023/12/18 00:13:11;;;;;;;8.40;5.47;;;;;;;;;;703730;28;1249;-74
2023/12/18 00:13:31;;;;;;;7.40;5.37;;;;;;;;;;702105;28;1683;-74
2023/12/18 00:13:51;;;;;;;8.13;5.33;;;;;;;;;;703366;28;800;-74
2023/12/18 00:14:12;;;;;;;8.50;4.90;;;;;;;;;;706092;27;1482;-73
2023/12/18 00:14:32;;;;;;;8.55;5.32;;;;;;;;;;705553;27;2571;-74
2023/12/18 00:14:52;;;;;;;7.53;4.97;;;;;;;;;;706206;27;791;-73
2023/12/18 00:15:12;;;;;;;8.83;4.93;;;;;;;;;;706780;27;1331;-75
2023/12/18 00:15:33;;;;;;;8.57;5.03;;;;;;;;;;705259;27;1828;-71
2023/12/18 00:15:53;;;;;;;7.50;4.70;;;;;;;;;;705019;27;4269;-73
2023/12/18 00:16:13;;;;;;;7.60;4.97;;;;;;;;;;702009;28;1257;-74
2023/12/18 00:16:34;;;;;;;7.93;5.10;;;;;;;;;;702240;28;991;-74
2023/12/18 00:16:54;;;;;;;8.77;5.53;;;;;;;;;;703518;28;899;-72
2023/12/18 00:17:14;;;;;;;9.13;5.20;;;;;;;;;;703809;28;866;-74
2023/12/18 00:17:35;;;;;;;8.30;4.97;;;;;;;;;;697775;28;1729;-73
2023/12/18 00:17:55;;;;;;;8.07;4.90;;;;;;;;;;700266;28;1328;-73
2023/12/18 00:18:15;;;;;;;9.10;5.50;;;;;;;;;;703649;28;950;-74
2023/12/18 00:18:35;;;;;;;8.47;5.20;;;;;;;;;;699803;28;1480;-74
2023/12/18 00:18:56;;;;;;;7.57;5.03;;;;;;;;;;699200;28;4267;-74
2023/12/18 00:19:16;;;;;;;7.40;5.22;;;;;;;;;;700284;28;1678;-75
2023/12/18 00:19:37;;;;;;;7.97;5.37;;;;;;;;;;698482;28;2285;-74
2023/12/18 00:19:58;;;;;;;8.10;5.28;;;;;;;;;;703149;28;900;-71
2023/12/18 00:20:19;;;;;;;7.93;5.10;;;;;;;;;;701311;28;3338;-73
2023/12/18 00:20:39;;;;;;;8.40;5.70;;;;;;;;;;703916;27;1546;-74
2023/12/18 00:20:59;;;;;;;8.30;5.70;;;;;;;;;;702177;28;1291;-73
2023/12/18 00:21:20;;;;;;;7.17;5.10;;;;;;;;;;702865;28;1288;-75
2023/12/18 00:21:40;;;;;;;9.00;5.72;;;;;;;;;;700580;28;1844;-73
2023/12/18 00:22:01;;;;;;;8.75;5.75;;;;;;;;;;702717;28;4172;-74
2023/12/18 00:22:21;;;;;;;8.53;5.47;;;;;;;;;;701679;28;1318;-74
2023/12/18 00:22:41;;;;;;;8.70;5.87;;;;;;;;;;700956;28;1749;-74
2023/12/18 00:23:02;;;;;;;9.02;5.90;;;;;;;;;;702559;28;1221;-73
2023/12/18 00:23:22;;;;;;;8.60;5.53;;;;;;;;;;702215;28;900;-74
2023/12/18 00:23:42;;;;;;;9.17;5.60;;;;;;;;;;702768;28;2376;-73
2023/12/18 00:24:02;;;;;;;8.77;5.70;;;;;;;;;;702978;28;899;-74
2023/12/18 00:24:23;;;;;;;10.03;6.00;;;;;;;;;;702690;28;1273;-74
2023/12/18 00:24:43;;;;;;;10.70;6.10;;;;;;;;;;701077;28;1752;-75
2023/12/18 00:25:04;;;;;;;9.55;6.40;;;;;;;;;;699828;28;4277;-74
2023/12/18 00:25:25;;;;;;;9.15;6.45;;;;;;;;;;700828;28;808;-73
2023/12/18 00:25:45;;;;;;;9.57;6.53;;;;;;;;;;700011;28;1758;-74
2023/12/18 00:26:05;;;;;;;10.43;6.47;;;;;;;;;;700539;28;1238;-75
2023/12/18 00:26:25;;;;;;;10.20;6.20;;;;;;;;;;700059;28;1313;-75
2023/12/18 00:26:46;;;;;;;9.40;6.13;;;;;;;;;;700756;28;1441;-75
2023/12/18 00:27:06;;;;;;;9.40;6.10;;;;;;;;;;702147;28;864;-73
2023/12/18 00:27:27;;;;;;;9.63;5.90;;;;;;;;;;701988;28;1002;-74
2023/12/18 00:27:47;;;;;;;9.25;5.90;;;;;;;;;;700834;28;4430;-71
2023/12/18 00:28:07;;;;;;;10.13;6.33;;;;;;;;;;700633;28;1198;-72
2023/12/18 00:28:27;;;;;;;10.07;6.28;;;;;;;;;;698639;28;1759;-72
2023/12/18 00:28:47;;;;;;;8.90;5.90;;;;;;;;;;697433;28;1305;-74
2023/12/18 00:29:08;;;;;;;8.63;6.10;;;;;;;;;;699982;28;943;-75
2023/12/18 00:29:28;;;;;;;8.27;6.00;;;;;;;;;;696482;28;2288;-74
2023/12/18 00:29:48;;;;;;;8.73;5.90;;;;;;;;;;692965;28;1420;-74
2023/12/18 00:30:09;;;;;;;8.83;5.87;;;;;;;;;;694299;28;915;-76
2023/12/18 00:30:29;;;;;;;8.55;6.07;;;;;;;;;;692600;28;2673;-75
2023/12/18 00:30:49;;;;;;;10.07;5.90;;;;;;;;;;696938;28;4240;-75
2023/12/18 00:31:10;;;;;;;9.40;5.87;;;;;;;;;;698240;28;993;-75
2023/12/18 00:31:30;;;;;;;9.90;6.03;;;;;;;;;;698131;28;2528;-74
2023/12/18 00:31:50;;;;;;;9.90;5.80;;;;;;;;;;701983;28;923;-73
2023/12/18 00:32:10;;;;;;;10.43;6.10;;;;;;;;;;702048;28;1922;-73
2023/12/18 00:32:31;;;;;;;9.48;5.97;;;;;;;;;;701379;28;1574;-71
2023/12/18 00:32:51;;;;;;;8.80;5.80;;;;;;;;;;699898;28;1338;-73
2023/12/18 00:33:11;;;;;;;9.17;5.50;;;;;;;;;;700811;28;1465;-73
2023/12/18 00:33:32;;;;;;;9.63;5.60;;;;;;;;;;699351;28;1707;-72
2023/12/18 00:33:52;;;;;;;8.27;5.50;;;;;;;;;;699570;28;4408;-73
2023/12/18 00:34:12;;;;;;;7.80;5.60;;;;;;;;;;697935;28;911;-73
2023/12/18 00:34:32;;;;;;;7.93;5.75;;;;;;;;;;695531;28;1861;-74
2023/12/18 00:34:53;;;;;;;8.73;5.60;;;;;;;;;;700255;28;843;-74
2023/12/18 00:35:13;;;;;;;9.10;5.90;;;;;;;;;;699862;28;891;-74
2023/12/18 00:35:33;;;;;;;8.48;5.70;;;;;;;;;;699688;28;1687;-73
2023/12/18 00:35:53;;;;;;;8.73;5.67;;;;;;;;;;700527;28;943;-74
2023/12/18 00:36:14;;;;;;;8.40;5.40;;;;;;;;;;700581;28;1030;-74
2023/12/18 00:36:34;;;;;;;8.15;5.35;;;;;;;;;;699792;28;2468;-74
2023/12/18 00:36:54;;;;;;;8.90;5.73;;;;;;;;;;699937;28;4708;-73
2023/12/18 00:37:15;;;;;;;8.40;5.77;;;;;;;;;;705958;27;927;-73
2023/12/18 00:37:35;;;;;;;9.15;5.63;;;;;;;;;;703029;27;1904;-74
2023/12/18 00:37:55;;;;;;;8.93;5.67;;;;;;;;;;702625;27;1333;-72
2023/12/18 00:38:15;;;;;;;9.17;5.90;;;;;;;;;;700979;28;1597;-75
2023/12/18 00:38:36;;;;;;;10.30;5.90;;;;;;;;;;699852;28;1768;-73
2023/12/18 00:38:56;;;;;;;10.27;5.80;;;;;;;;;;698320;28;1172;-75
2023/12/18 00:39:17;;;;;;;10.30;5.93;;;;;;;;;;699851;28;1203;-74
2023/12/18 00:39:37;;;;;;;8.60;5.55;;;;;;;;;;697102;28;1812;-73
2023/12/18 00:39:57;;;;;;;8.50;5.80;;;;;;;;;;695993;28;4248;-74
2023/12/18 00:40:18;;;;;;;10.30;5.67;;;;;;;;;;700925;28;912;-75
2023/12/18 00:40:38;;;;;;;8.97;5.40;;;;;;;;;;697142;28;1273;-74
2023/12/18 00:40:58;;;;;;;8.18;5.68;;;;;;;;;;697509;28;924;-74
2023/12/18 00:41:18;;;;;;;8.60;5.70;;;;;;;;;;697774;28;1271;-73
2023/12/18 00:41:40;;;;;;;8.63;5.33;;;;;;;;;;697001;28;1759;-73
2023/12/18 00:42:00;;;;;;;7.82;5.20;;;;;;;;;;700559;28;900;-75
2023/12/18 00:42:20;;;;;;;8.60;5.20;;;;;;;;;;698305;28;852;-73
2023/12/18 00:42:41;;;;;;;8.70;5.70;;;;;;;;;;698899;28;2318;-73
2023/12/18 00:43:01;;;;;;;8.80;5.83;;;;;;;;;;696975;28;4263;-73
2023/12/18 00:43:21;;;;;;;9.30;5.67;;;;;;;;;;697982;28;1145;-74
2023/12/18 00:43:42;;;;;;;9.45;5.68;;;;;;;;;;694824;28;2757;-75
2023/12/18 00:44:02;;;;;;;9.83;5.83;;;;;;;;;;697423;28;1347;-72
2023/12/18 00:44:22;;;;;;;9.93;6.00;;;;;;;;;;700859;28;778;-73
2023/12/18 00:44:42;;;;;;;9.73;5.57;;;;;;;;;;698507;28;1782;-74
2023/12/18 00:45:03;;;;;;;9.50;5.73;;;;;;;;;;703513;28;1318;-71
2023/12/18 00:45:23;;;;;;;9.00;5.83;;;;;;;;;;699009;28;1143;-73
2023/12/18 00:45:43;;;;;;;8.57;5.78;;;;;;;;;;699536;28;1103;-74
2023/12/18 00:46:05;;;;;;;8.97;5.40;;;;;;;;;;701507;28;4398;-73
2023/12/18 00:46:25;;;;;;;9.18;5.63;;;;;;;;;;699038;28;1038;-74
2023/12/18 00:46:45;;;;;;;9.40;5.50;;;;;;;;;;695600;28;1067;-73
2023/12/18 00:47:06;;;;;;;9.67;5.77;;;;;;;;;;699064;28;912;-71
2023/12/18 00:47:27;;;;;;;9.63;5.63;;;;;;;;;;702603;28;876;-73
2023/12/18 00:47:47;;;;;;;8.65;5.53;;;;;;;;;;701914;28;1889;-76
2023/12/18 00:48:07;;;;;;;9.57;5.60;;;;;;;;;;700413;28;1052;-74
2023/12/18 00:48:28;;;;;;;10.00;5.57;;;;;;;;;;699189;28;986;-74
2023/12/18 00:48:48;;;;;;;9.17;5.40;;;;;;;;;;697334;28;4403;-75
2023/12/18 00:49:09;;;;;;;8.53;5.57;;;;;;;;;;700049;28;868;-74
2023/12/18 00:49:31;;;;;;;8.73;5.63;;;;;;;;;;699119;28;864;-72
2023/12/18 00:49:52;;;;;;;9.10;5.50;;;;;;;;;;698956;28;1033;-74
2023/12/18 00:50:12;;;;;;;8.73;5.37;;;;;;;;;;699000;28;1325;-74
2023/12/18 00:50:32;;;;;;;9.25;5.60;;;;;;;;;;697687;28;1636;-75
2023/12/18 00:50:53;;;;;;;9.23;5.67;;;;;;;;;;699692;28;848;-72
2023/12/18 00:51:13;;;;;;;8.73;5.50;;;;;;;;;;699619;28;910;-74
2023/12/18 00:51:33;;;;;;;9.55;5.80;;;;;;;;;;694421;28;1785;-74
2023/12/18 00:51:54;;;;;;;9.03;6.03;;;;;;;;;;696228;28;4442;-75
2023/12/18 00:52:14;;;;;;;10.93;6.00;;;;;;;;;;694983;28;1961;-74
2023/12/18 00:52:34;;;;;;;10.20;6.17;;;;;;;;;;693780;28;1924;-74
2023/12/18 00:52:54;;;;;;;9.30;5.93;;;;;;;;;;695360;28;921;-74
2023/12/18 00:53:16;;;;;;;8.57;5.85;;;;;;;;;;695383;28;1240;-74
2023/12/18 00:53:36;;;;;;;9.35;5.47;;;;;;;;;;696309;28;1541;-72
2023/12/18 00:53:56;;;;;;;9.10;5.30;;;;;;;;;;698439;28;1068;-75
2023/12/18 00:54:17;;;;;;;8.00;5.38;;;;;;;;;;702453;28;915;-73
2023/12/18 00:54:37;;;;;;;8.23;5.20;;;;;;;;;;699658;28;1178;-73
2023/12/18 00:54:57;;;;;;;8.77;5.43;;;;;;;;;;701142;28;4314;-75
2023/12/18 00:55:17;;;;;;;9.02;5.85;;;;;;;;;;703452;28;1170;-74
2023/12/18 00:55:38;;;;;;;9.67;5.87;;;;;;;;;;702015;28;1061;-75
2023/12/18 00:55:58;;;;;;;8.80;5.63;;;;;;;;;;703776;28;907;-74
2023/12/18 00:56:18;;;;;;;9.57;5.67;;;;;;;;;;698056;28;1419;-75
2023/12/18 00:56:39;;;;;;;9.23;5.88;;;;;;;;;;699412;28;1909;-73
2023/12/18 00:56:59;;;;;;;9.27;5.63;;;;;;;;;;700751;28;891;-75
2023/12/18 00:57:19;;;;;;;8.97;5.47;;;;;;;;;;700737;28;966;-75
2023/12/18 00:57:39;;;;;;;8.23;5.20;;;;;;;;;;699486;28;2329;-75
2023/12/18 00:58:00;;;;;;;8.17;5.70;;;;;;;;;;699890;28;4393;-75
2023/12/18 00:58:20;;;;;;;8.63;5.50;;;;;;;;;;703772;28;792;-76
2023/12/18 00:58:40;;;;;;;8.03;5.57;;;;;;;;;;701917;28;1678;-72
2023/12/18 00:59:00;;;;;;;7.83;5.40;;;;;;;;;;702254;28;832;-72
2023/12/18 00:59:21;;;;;;;8.20;5.88;;;;;;;;;;703434;28;852;-75
2023/12/18 00:59:41;;;;;;;8.50;5.80;;;;;;;;;;699305;28;2321;-74
2023/12/18 01:00:02;;;;;;;9.17;5.60;;;;;;;;;;700328;28;931;-75
2023/12/18 01:00:22;;;;;;;9.50;6.17;;;;;;;;;;703499;28;1410;-75
2023/12/18 01:00:42;;;;;;;9.37;6.07;;;;;;;;;;701897;28;1470;-75
2023/12/18 01:01:03;;;;;;;9.27;6.00;;;;;;;;;;702834;28;4248;-75
2023/12/18 01:01:23;;;;;;;8.97;5.80;;;;;;;;;;703787;28;777;-75
2023/12/18 01:01:43;;;;;;;9.00;5.88;;;;;;;;;;701812;28;944;-75
2023/12/18 01:02:04;;;;;;;9.60;5.90;;;;;;;;;;702843;28;950;-73
2023/12/18 01:02:24;;;;;;;8.82;5.68;;;;;;;;;;704084;28;927;-73
2023/12/18 01:02:46;;;;;;;8.13;5.70;;;;;;;;;;701387;28;1550;-72
2023/12/18 01:03:07;;;;;;;9.40;5.93;;;;;;;;;;700282;28;919;-74
2023/12/18 01:03:28;;;;;;;9.83;6.07;;;;;;;;;;700698;28;923;-75
2023/12/18 01:03:48;;;;;;;10.40;5.90;;;;;;;;;;698924;28;4297;-75
2023/12/18 01:04:08;;;;;;;10.57;5.67;;;;;;;;;;700360;28;1048;-75
2023/12/18 01:04:28;;;;;;;8.13;5.30;;;;;;;;;;701415;28;884;-75
2023/12/18 01:04:49;;;;;;;8.63;5.38;;;;;;;;;;700710;28;1193;-74
2023/12/18 01:05:09;;;;;;;9.57;5.47;;;;;;;;;;703167;28;1444;-74
2023/12/18 01:05:29;;;;;;;8.57;5.80;;;;;;;;;;700960;28;1304;-74
2023/12/18 01:05:50;;;;;;;8.48;5.78;;;;;;;;;;699336;28;2235;-75
2023/12/18 01:06:10;;;;;;;8.87;6.00;;;;;;;;;;700335;28;748;-75
2023/12/18 01:06:30;;;;;;;9.90;5.90;;;;;;;;;;700498;28;974;-75
2023/12/18 01:06:50;;;;;;;9.48;5.95;;;;;;;;;;698929;28;4234;-75
2023/12/18 01:07:10;;;;;;;8.27;5.67;;;;;;;;;;702726;28;978;-72
2023/12/18 01:07:31;;;;;;;8.40;5.27;;;;;;;;;;701438;28;2246;-73
2023/12/18 01:07:51;;;;;;;9.77;6.03;;;;;;;;;;702412;28;943;-75
2023/12/18 01:08:12;;;;;;;10.00;5.93;;;;;;;;;;703019;28;943;-75
2023/12/18 01:08:33;;;;;;;8.90;5.65;;;;;;;;;;702923;28;2609;-76
2023/12/18 01:08:53;;;;;;;9.52;6.07;;;;;;;;;;702513;28;966;-75
2023/12/18 01:09:13;;;;;;;8.80;5.87;;;;;;;;;;703499;28;801;-73
2023/12/18 01:09:33;;;;;;;9.17;5.70;;;;;;;;;;702174;28;1493;-75
2023/12/18 01:09:58;;;;;;;8.67;5.73;;;;;;;;;;702741;28;4238;-75
2023/12/18 01:10:18;;;;;;;9.05;5.93;;;;;;;;;;703011;28;963;-72
2023/12/18 01:10:38;;;;;;;9.50;6.03;;;;;;;;;;702823;28;1666;-74
2023/12/18 01:10:59;;;;;;;9.00;6.07;;;;;;;;;;706742;28;967;-75
2023/12/18 01:11:19;;;;;;;9.57;5.83;;;;;;;;;;703881;28;1170;-75
2023/12/18 01:11:40;;;;;;;11.40;5.90;;;;;;;;;;701892;28;1490;-75
2023/12/18 01:12:00;;;;;;;9.57;6.10;;;;;;;;;;700641;28;1914;-76
2023/12/18 01:12:20;;;;;;;9.53;5.83;;;;;;;;;;700561;28;1372;-75
2023/12/18 01:12:40;;;;;;;9.07;5.85;;;;;;;;;;699514;28;1844;-75
2023/12/18 01:13:01;;;;;;;8.67;5.70;;;;;;;;;;697329;28;4299;-74
2023/12/18 01:13:21;;;;;;;8.47;5.73;;;;;;;;;;697101;28;1412;-74
2023/12/18 01:13:41;;;;;;;9.05;5.90;;;;;;;;;;697120;28;1886;-74
2023/12/18 01:14:02;;;;;;;8.73;5.90;;;;;;;;;;701712;28;1097;-76
2023/12/18 01:14:22;;;;;;;9.15;5.60;;;;;;;;;;698908;28;951;-73
2023/12/18 01:14:44;;;;;;;9.50;5.80;;;;;;;;;;698286;28;2636;-76
2023/12/18 01:15:04;;;;;;;9.07;6.07;;;;;;;;;;701522;28;912;-72
2023/12/18 01:15:24;;;;;;;9.50;5.97;;;;;;;;;;703494;28;1247;-75
2023/12/18 01:15:44;;;;;;;8.97;5.80;;;;;;;;;;702330;28;1832;-75
2023/12/18 01:16:05;;;;;;;9.87;6.20;;;;;;;;;;702772;28;4193;-75
2023/12/18 01:16:25;;;;;;;10.07;6.00;;;;;;;;;;706389;28;895;-74
2023/12/18 01:16:45;;;;;;;9.03;6.00;;;;;;;;;;702656;27;3668;-75
2023/12/18 01:17:05;;;;;;;9.00;6.30;;;;;;;;;;703868;28;1284;-74
2023/12/18 01:17:26;;;;;;;8.50;5.90;;;;;;;;;;700338;28;1039;-73
2023/12/18 01:17:46;;;;;;;8.93;5.90;;;;;;;;;;696815;28;1822;-75
2023/12/18 01:18:07;;;;;;;9.43;6.15;;;;;;;;;;698004;28;1051;-75
2023/12/18 01:18:27;;;;;;;9.43;5.97;;;;;;;;;;697982;28;955;-76
2023/12/18 01:18:47;;;;;;;8.75;5.78;;;;;;;;;;695291;28;4311;-74
2023/12/18 01:19:07;;;;;;;9.63;5.93;;;;;;;;;;700751;28;1300;-75
2023/12/18 01:19:28;;;;;;;10.00;5.93;;;;;;;;;;701137;28;876;-75
2023/12/18 01:19:48;;;;;;;10.27;5.85;;;;;;;;;;702418;28;2549;-76
2023/12/18 01:20:08;;;;;;;8.70;5.60;;;;;;;;;;703547;28;840;-75
2023/12/18 01:20:29;;;;;;;9.60;5.35;;;;;;;;;;703036;28;959;-73
2023/12/18 01:20:49;;;;;;;9.23;5.77;;;;;;;;;;701578;28;1111;-74
2023/12/18 01:21:09;;;;;;;8.67;5.70;;;;;;;;;;703515;28;1010;-75
2023/12/18 01:21:29;;;;;;;9.48;5.65;;;;;;;;;;703419;28;1014;-74
2023/12/18 01:21:50;;;;;;;8.47;5.73;;;;;;;;;;698914;28;4270;-75
2023/12/18 01:22:10;;;;;;;8.17;5.50;;;;;;;;;;700420;28;951;-75
2023/12/18 01:22:30;;;;;;;9.05;5.80;;;;;;;;;;700587;28;955;-75
2023/12/18 01:22:50;;;;;;;9.10;5.80;;;;;;;;;;699120;28;1761;-75
2023/12/18 01:23:11;;;;;;;9.20;5.90;;;;;;;;;;699762;28;1218;-75
2023/12/18 01:23:32;;;;;;;9.18;5.85;;;;;;;;;;701122;28;1046;-74
2023/12/18 01:23:52;;;;;;;10.37;5.93;;;;;;;;;;699547;28;1460;-75
2023/12/18 01:24:12;;;;;;;8.95;5.65;;;;;;;;;;700172;28;1162;-75
2023/12/18 01:24:32;;;;;;;8.53;5.40;;;;;;;;;;698357;28;1734;-73
2023/12/18 01:24:53;;;;;;;8.83;5.50;;;;;;;;;;698302;28;4214;-76
2023/12/18 01:25:13;;;;;;;9.18;5.47;;;;;;;;;;699340;28;813;-75
2023/12/18 01:25:33;;;;;;;8.70;5.60;;;;;;;;;;698731;28;1777;-74
2023/12/18 01:25:54;;;;;;;8.20;5.53;;;;;;;;;;702225;28;1333;-72
2023/12/18 01:26:14;;;;;;;8.60;5.37;;;;;;;;;;700829;28;780;-72
2023/12/18 01:26:37;;;;;;;10.47;5.67;;;;;;;;;;702532;28;1046;-74
2023/12/18 01:26:57;;;;;;;9.40;5.65;;;;;;;;;;701663;28;1007;-74
2023/12/18 01:27:18;;;;;;;8.40;5.93;;;;;;;;;;702894;28;1551;-76
2023/12/18 01:27:39;;;;;;;8.73;5.57;;;;;;;;;;702117;28;1738;-75
2023/12/18 01:27:59;;;;;;;9.02;5.25;;;;;;;;;;703090;28;4203;-75
2023/12/18 01:28:19;;;;;;;8.30;5.53;;;;;;;;;;702362;28;905;-74
2023/12/18 01:28:42;;;;;;;8.87;5.67;;;;;;;;;;701091;28;2322;-75
2023/12/18 01:29:03;;;;;;;8.10;5.65;;;;;;;;;;702437;28;906;-75
2023/12/18 01:29:23;;;;;;;8.40;5.70;;;;;;;;;;700571;28;1100;-72
2023/12/18 01:29:44;;;;;;;9.10;5.67;;;;;;;;;;700496;28;2098;-72
2023/12/18 01:30:05;;;;;;;9.85;5.47;;;;;;;;;;699541;28;904;-75
2023/12/18 01:30:26;;;;;;;9.30;5.40;;;;;;;;;;695939;28;888;-75
2023/12/18 01:30:46;;;;;;;9.63;5.57;;;;;;;;;;693746;28;2397;-74
2023/12/18 01:31:07;;;;;;;8.77;5.40;;;;;;;;;;694423;28;4368;-76
2023/12/18 01:31:28;;;;;;;8.40;5.93;;;;;;;;;;694960;28;1192;-74
2023/12/18 01:31:48;;;;;;;8.73;5.70;;;;;;;;;;695685;28;1460;-74
2023/12/18 01:32:08;;;;;;;9.07;5.70;;;;;;;;;;698910;28;1909;-75
2023/12/18 01:32:29;;;;;;;8.55;5.80;;;;;;;;;;701974;28;852;-73
2023/12/18 01:32:50;;;;;;;8.98;5.93;;;;;;;;;;702820;28;1832;-75
2023/12/18 01:33:10;;;;;;;9.53;5.70;;;;;;;;;;703206;28;1103;-75
2023/12/18 01:33:30;;;;;;;9.10;5.43;;;;;;;;;;703452;28;950;-74
2023/12/18 01:33:52;;;;;;;10.33;5.87;;;;;;;;;;701160;28;4538;-75
2023/12/18 01:34:12;;;;;;;9.57;5.50;;;;;;;;;;703521;28;789;-74
2023/12/18 01:34:32;;;;;;;8.87;5.77;;;;;;;;;;703462;28;1210;-76
2023/12/18 01:34:53;;;;;;;7.80;5.27;;;;;;;;;;702288;28;2192;-75
2023/12/18 01:35:13;;;;;;;8.13;5.57;;;;;;;;;;700386;28;1135;-73
2023/12/18 01:35:33;;;;;;;8.73;5.70;;;;;;;;;;699942;28;1790;-71
2023/12/18 01:35:53;;;;;;;8.20;5.40;;;;;;;;;;700292;28;1024;-76
2023/12/18 01:36:14;;;;;;;8.85;5.25;;;;;;;;;;700890;28;1279;-73
2023/12/18 01:36:34;;;;;;;8.50;5.13;;;;;;;;;;699727;28;1894;-74
2023/12/18 01:36:54;;;;;;;8.47;5.50;;;;;;;;;;697696;28;4379;-76
2023/12/18 01:37:14;;;;;;;8.33;5.50;;;;;;;;;;706142;27;1125;-75
2023/12/18 01:37:35;;;;;;;8.03;5.60;;;;;;;;;;702466;28;3012;-75
2023/12/18 01:37:55;;;;;;;8.50;5.37;;;;;;;;;;699720;28;950;-75
2023/12/18 01:38:15;;;;;;;8.60;5.20;;;;;;;;;;700458;28;1355;-76
2023/12/18 01:38:35;;;;;;;8.57;5.10;;;;;;;;;;699798;28;1488;-75
2023/12/18 01:38:56;;;;;;;8.23;5.20;;;;;;;;;;700023;28;1216;-75
2023/12/18 01:39:16;;;;;;;7.93;5.40;;;;;;;;;;700542;28;6206;-74
2023/12/18 01:39:36;;;;;;;8.38;5.15;;;;;;;;;;702201;28;2513;-76
2023/12/18 01:39:57;;;;;;;7.67;5.27;;;;;;;;;;705601;28;4456;-75
2023/12/18 01:40:18;;;;;;;8.02;5.43;;;;;;;;;;705246;28;935;-74
2023/12/18 01:40:38;;;;;;;8.77;5.70;;;;;;;;;;706111;27;1748;-74
2023/12/18 01:40:58;;;;;;;8.87;5.77;;;;;;;;;;706103;28;748;-74
2023/12/18 01:41:18;;;;;;;8.07;5.50;;;;;;;;;;703309;28;1403;-75
2023/12/18 01:41:39;;;;;;;8.07;5.05;;;;;;;;;;702346;28;2790;-76
2023/12/18 01:41:59;;;;;;;8.73;5.30;;;;;;;;;;703523;28;860;-75
2023/12/18 01:42:19;;;;;;;9.43;5.70;;;;;;;;;;703271;28;800;-76
2023/12/18 01:42:43;;;;;;;9.00;5.65;;;;;;;;;;703375;28;2668;-74
2023/12/18 01:43:21;;;;;;;8.60;5.60;;;;;;;;;;702635;28;4224;-75
2023/12/18 01:43:41;;;;;;;7.93;5.20;;;;;;;;;;705695;27;1555;-75
2023/12/18 01:44:02;;;;;;;8.17;5.40;;;;;;;;;;703391;28;1343;-74
2023/12/18 01:44:22;;;;;;;8.00;5.40;;;;;;;;;;703756;28;942;-76
2023/12/18 01:44:42;;;;;;;8.10;5.28;;;;;;;;;;701637;28;1238;-75
2023/12/18 01:45:02;;;;;;;7.90;5.10;;;;;;;;;;703350;28;843;-73
2023/12/18 01:45:23;;;;;;;7.50;5.20;;;;;;;;;;703405;28;923;-74
2023/12/18 01:45:43;;;;;;;7.22;5.20;;;;;;;;;;699036;28;2434;-75
2023/12/18 01:46:04;;;;;;;7.93;5.40;;;;;;;;;;700215;28;4210;-76
2023/12/18 01:46:25;;;;;;;7.60;5.55;;;;;;;;;;700486;28;1061;-74
2023/12/18 01:46:46;;;;;;;8.88;5.88;;;;;;;;;;699680;28;1515;-75
2023/12/18 01:47:06;;;;;;;8.77;5.72;;;;;;;;;;698402;28;892;-72
2023/12/18 01:47:26;;;;;;;8.83;5.37;;;;;;;;;;701252;28;865;-76
2023/12/18 01:47:47;;;;;;;8.57;5.32;;;;;;;;;;699590;28;1418;-75
2023/12/18 01:48:07;;;;;;;8.43;5.20;;;;;;;;;;697735;28;1397;-74
2023/12/18 01:48:28;;;;;;;8.03;5.23;;;;;;;;;;697608;28;928;-75
2023/12/18 01:48:48;;;;;;;9.40;5.57;;;;;;;;;;695806;28;4833;-76
2023/12/18 01:49:09;;;;;;;8.93;5.57;;;;;;;;;;700624;28;876;-76
2023/12/18 01:49:30;;;;;;;9.53;5.30;;;;;;;;;;700024;28;793;-75
2023/12/18 01:49:50;;;;;;;8.13;5.28;;;;;;;;;;701884;28;1393;-76
2023/12/18 01:50:10;;;;;;;7.93;5.55;;;;;;;;;;703037;28;1230;-76
2023/12/18 01:50:32;;;;;;;8.10;5.30;;;;;;;;;;703415;28;976;-74
2023/12/18 01:50:53;;;;;;;8.07;5.20;;;;;;;;;;702871;28;952;-75
2023/12/18 01:51:14;;;;;;;8.65;5.28;;;;;;;;;;704124;28;983;-75
2023/12/18 01:51:34;;;;;;;8.55;5.32;;;;;;;;;;701030;28;1316;-76
2023/12/18 01:51:55;;;;;;;7.60;5.13;;;;;;;;;;700093;28;4381;-73
2023/12/18 01:52:16;;;;;;;7.40;5.00;;;;;;;;;;703873;28;1917;-76
2023/12/18 01:52:37;;;;;;;7.43;5.05;;;;;;;;;;701338;28;2231;-74
2023/12/18 01:52:57;;;;;;;8.55;5.20;;;;;;;;;;704327;28;891;-74
2023/12/18 01:53:18;;;;;;;9.20;5.50;;;;;;;;;;704142;28;1151;-76
2023/12/18 01:53:42;;;;;;;8.27;5.35;;;;;;;;;;698807;28;1746;-75
2023/12/18 01:54:03;;;;;;;8.05;5.30;;;;;;;;;;700653;28;955;-76
2023/12/18 01:54:23;;;;;;;7.90;5.50;;;;;;;;;;704380;28;744;-76
2023/12/18 01:54:44;;;;;;;6.90;4.93;;;;;;;;;;701714;28;2840;-76
2023/12/18 01:55:05;;;;;;;7.05;5.00;;;;;;;;;;703442;28;4389;-75
2023/12/18 01:55:25;;;;;;;7.87;5.13;;;;;;;;;;704019;28;1556;-75
2023/12/18 01:55:45;;;;;;;9.63;5.40;;;;;;;;;;702303;28;1891;-75
2023/12/18 01:56:06;;;;;;;8.50;5.30;;;;;;;;;;703236;28;967;-76
2023/12/18 01:56:28;;;;;;;7.28;4.82;;;;;;;;;;704114;28;965;-75
2023/12/18 01:56:50;;;;;;;7.60;5.03;;;;;;;;;;702267;27;1693;-77
2023/12/18 01:57:12;;;;;;;8.10;5.43;;;;;;;;;;703962;28;1310;-72
2023/12/18 01:57:33;;;;;;;7.75;5.18;;;;;;;;;;704179;28;962;-76
2023/12/18 01:57:53;;;;;;;8.05;5.20;;;;;;;;;;700642;28;4233;-73
2023/12/18 01:58:13;;;;;;;8.13;5.07;;;;;;;;;;703955;28;899;-76
2023/12/18 01:58:34;;;;;;;8.93;5.28;;;;;;;;;;703737;28;943;-75
2023/12/18 01:58:55;;;;;;;8.93;5.40;;;;;;;;;;699212;28;2623;-72
2023/12/18 01:59:16;;;;;;;8.67;5.20;;;;;;;;;;699083;28;1026;-76
2023/12/18 01:59:36;;;;;;;8.35;5.35;;;;;;;;;;699670;28;1080;-75
2023/12/18 01:59:57;;;;;;;8.45;5.28;;;;;;;;;;699253;28;919;-76
2023/12/18 02:00:17;;;;;;;8.15;5.13;;;;;;;;;;699603;28;1280;-74
2023/12/18 02:00:40;;;;;;;8.27;5.18;;;;;;;;;;696448;28;1361;-76
2023/12/18 02:01:00;;;;;;;9.87;5.33;;;;;;;;;;697779;28;4282;-76
2023/12/18 02:01:21;;;;;;;8.27;5.00;;;;;;;;;;698461;28;911;-74
2023/12/18 02:01:42;;;;;;;7.57;4.85;;;;;;;;;;698224;28;1942;-75
2023/12/18 02:02:02;;;;;;;8.98;5.05;;;;;;;;;;698075;28;1297;-75
2023/12/18 02:02:23;;;;;;;8.70;5.10;;;;;;;;;;698519;28;955;-75
2023/12/18 02:02:43;;;;;;;8.53;5.10;;;;;;;;;;700704;28;2440;-75
2023/12/18 02:03:04;;;;;;;8.83;5.10;;;;;;;;;;702563;28;940;-74
2023/12/18 02:03:24;;;;;;;7.50;4.78;;;;;;;;;;701720;28;884;-76
2023/12/18 02:03:45;;;;;;;7.38;4.72;;;;;;;;;;705156;27;1819;-74
2023/12/18 02:04:05;;;;;;;7.00;4.97;;;;;;;;;;703286;28;4384;-75
2023/12/18 02:04:25;;;;;;;7.03;4.90;;;;;;;;;;703801;28;879;-76
2023/12/18 02:04:46;;;;;;;7.65;5.20;;;;;;;;;;702075;28;1743;-74
2023/12/18 02:05:06;;;;;;;7.93;5.30;;;;;;;;;;703552;28;911;-76
2023/12/18 02:05:26;;;;;;;8.02;5.20;;;;;;;;;;704187;28;1289;-73
2023/12/18 02:05:47;;;;;;;8.40;5.00;;;;;;;;;;702542;28;2822;-73
2023/12/18 02:06:07;;;;;;;7.55;4.95;;;;;;;;;;706599;27;836;-75
2023/12/18 02:06:27;;;;;;;8.43;5.10;;;;;;;;;;707135;27;855;-76
2023/12/18 02:06:48;;;;;;;7.67;4.60;;;;;;;;;;705275;27;4398;-75
2023/12/18 02:07:08;;;;;;;8.30;4.85;;;;;;;;;;706768;27;954;-73
2023/12/18 02:07:29;;;;;;;7.10;4.83;;;;;;;;;;703967;28;1087;-73